Time;durP1;ratioP1;P1;durP2;ratioP2;P2;SDS_P1;SDS_P2;PMS_P1;PMS_P2;Temp;Humidity;BMP_temperature;BMP_pressure;BME280_temperature;BME280_humidity;BME280_pressure;Samples;Min_cycle;Max_cycle;Signal;HPM_P1;HPM_P2
2023/07/31 00:01:18;;;;;;;8.73;2.25;;;;;;;;;;4957974;28;20230;-89
2023/07/31 00:03:46;;;;;;;2.80;1.95;;;;;;;;;;4985247;28;20234;-87
2023/07/31 00:06:14;;;;;;;5.85;1.95;;;;;;;;;;4976622;28;20218;-86
2023/07/31 00:08:42;;;;;;;5.68;2.15;;;;;;;;;;4986100;28;20228;-87
2023/07/31 00:11:08;;;;;;;4.90;1.73;;;;;;;;;;4972280;28;20226;-85
2023/07/31 00:13:33;;;;;;;4.75;2.30;;;;;;;;;;4990667;28;20221;-85
2023/07/31 00:15:59;;;;;;;4.27;2.20;;;;;;;;;;5005918;28;20261;-88
2023/07/31 00:18:29;;;;;;;5.22;2.45;;;;;;;;;;5003729;28;20604;-87
2023/07/31 00:20:55;;;;;;;3.13;2.17;;;;;;;;;;4997997;28;20309;-86
2023/07/31 00:23:23;;;;;;;3.00;2.17;;;;;;;;;;4985422;28;20225;-86
2023/07/31 00:25:54;;;;;;;2.85;2.20;;;;;;;;;;4983202;28;20245;-87
2023/07/31 00:28:20;;;;;;;5.55;2.28;;;;;;;;;;4997608;28;20230;-88
2023/07/31 00:30:46;;;;;;;4.72;2.13;;;;;;;;;;5002960;28;20230;-88
2023/07/31 00:33:11;;;;;;;5.23;2.57;;;;;;;;;;4986068;28;20228;-87
2023/07/31 00:35:37;;;;;;;8.07;2.63;;;;;;;;;;4988022;28;20832;-88
2023/07/31 00:38:07;;;;;;;7.05;2.50;;;;;;;;;;4967561;28;20238;-86
2023/07/31 00:40:42;;;;;;;8.20;2.50;;;;;;;;;;4980704;28;20244;-86
2023/07/31 00:43:07;;;;;;;3.28;2.00;;;;;;;;;;4998679;28;20240;-85
2023/07/31 00:45:34;;;;;;;5.68;2.38;;;;;;;;;;4995878;28;20237;-83
2023/07/31 00:48:03;;;;;;;4.63;2.22;;;;;;;;;;5000644;28;20224;-87
2023/07/31 00:50:30;;;;;;;5.25;2.38;;;;;;;;;;4978963;28;20279;-85
2023/07/31 00:52:57;;;;;;;6.28;2.63;;;;;;;;;;4977976;28;20230;-85
2023/07/31 00:55:23;;;;;;;3.92;2.17;;;;;;;;;;4984099;28;20227;-86
2023/07/31 00:57:50;;;;;;;5.65;2.55;;;;;;;;;;4976145;28;20244;-84
2023/07/31 01:00:17;;;;;;;3.80;2.50;;;;;;;;;;4980048;28;20221;-85
2023/07/31 01:02:43;;;;;;;4.80;2.42;;;;;;;;;;4968842;28;21174;-84
2023/07/31 01:05:13;;;;;;;7.80;3.08;;;;;;;;;;4986605;28;20253;-84
2023/07/31 01:08:06;;;;;;;5.70;2.60;;;;;;;;;;5001728;28;20206;-84
2023/07/31 01:10:37;;;;;;;5.78;2.60;;;;;;;;;;4995626;28;20242;-86
2023/07/31 01:13:04;;;;;;;4.30;2.55;;;;;;;;;;4966590;28;20230;-86
2023/07/31 01:15:32;;;;;;;7.00;3.08;;;;;;;;;;4951189;28;20309;-85
2023/07/31 01:18:00;;;;;;;3.22;2.42;;;;;;;;;;4975357;28;20236;-86
2023/07/31 01:20:31;;;;;;;4.20;3.08;;;;;;;;;;4984192;28;20854;-82
2023/07/31 01:23:23;;;;;;;5.07;2.97;;;;;;;;;;4980844;28;20260;-85
2023/07/31 01:25:52;;;;;;;5.05;3.42;;;;;;;;;;4992130;28;20226;-85
2023/07/31 01:28:20;;;;;;;5.78;3.17;;;;;;;;;;4984225;28;20689;-87
2023/07/31 01:30:47;;;;;;;4.10;3.60;;;;;;;;;;4987113;28;20313;-85
2023/07/31 01:33:15;;;;;;;12.00;3.83;;;;;;;;;;4965643;28;20222;-86
2023/07/31 01:35:46;;;;;;;5.03;3.55;;;;;;;;;;4983486;28;20241;-84
2023/07/31 01:38:11;;;;;;;4.38;3.97;;;;;;;;;;4976202;28;20234;-87
2023/07/31 01:40:39;;;;;;;4.70;4.10;;;;;;;;;;4979248;28;20255;-84
2023/07/31 01:43:05;;;;;;;4.78;3.90;;;;;;;;;;4996810;28;20230;-86
2023/07/31 01:45:30;;;;;;;5.72;4.13;;;;;;;;;;4998786;28;20228;-85
2023/07/31 01:47:56;;;;;;;4.78;4.18;;;;;;;;;;4994897;28;20671;-85
2023/07/31 01:50:24;;;;;;;6.63;4.63;;;;;;;;;;4946391;28;20368;-85
2023/07/31 01:52:52;;;;;;;4.97;4.57;;;;;;;;;;5006671;28;20253;-83
2023/07/31 01:55:18;;;;;;;5.60;4.63;;;;;;;;;;4984373;28;20241;-85
2023/07/31 01:57:45;;;;;;;6.70;5.43;;;;;;;;;;4993442;28;20234;-87
2023/07/31 02:00:11;;;;;;;6.85;5.13;;;;;;;;;;4987502;28;20576;-84
2023/07/31 02:02:41;;;;;;;5.85;5.28;;;;;;;;;;5001080;28;20222;-85
2023/07/31 02:05:08;;;;;;;7.35;5.47;;;;;;;;;;4977085;28;20230;-86
2023/07/31 02:07:33;;;;;;;5.22;4.72;;;;;;;;;;4976558;28;20229;-85
2023/07/31 02:09:59;;;;;;;7.38;5.43;;;;;;;;;;4999889;28;20217;-86
2023/07/31 02:12:27;;;;;;;7.28;5.20;;;;;;;;;;4994600;28;20584;-84
2023/07/31 02:14:54;;;;;;;8.48;5.22;;;;;;;;;;4976144;28;20819;-86
2023/07/31 02:17:21;;;;;;;5.80;5.20;;;;;;;;;;4958646;28;20221;-86
2023/07/31 02:19:46;;;;;;;8.43;6.00;;;;;;;;;;4971966;28;20221;-86
2023/07/31 02:22:12;;;;;;;5.88;5.28;;;;;;;;;;4977545;28;20601;-85
2023/07/31 02:24:40;;;;;;;5.68;5.18;;;;;;;;;;4984242;28;20599;-85
2023/07/31 02:27:05;;;;;;;5.65;5.22;;;;;;;;;;5007511;28;20199;-83
2023/07/31 02:29:31;;;;;;;6.22;5.63;;;;;;;;;;5010538;28;20229;-86
2023/07/31 02:31:59;;;;;;;6.68;6.05;;;;;;;;;;4967215;28;20931;-84
2023/07/31 02:34:25;;;;;;;5.80;5.40;;;;;;;;;;4983640;28;20279;-84
2023/07/31 02:36:50;;;;;;;6.32;5.72;;;;;;;;;;5004202;28;20970;-87
2023/07/31 02:39:17;;;;;;;6.53;5.97;;;;;;;;;;4982074;28;20214;-87
2023/07/31 02:41:45;;;;;;;7.25;6.05;;;;;;;;;;4994577;28;20230;-86
2023/07/31 02:44:14;;;;;;;7.63;5.95;;;;;;;;;;5000744;28;20237;-87
2023/07/31 02:46:40;;;;;;;6.50;5.85;;;;;;;;;;4984276;28;20217;-86
2023/07/31 02:49:08;;;;;;;6.55;6.00;;;;;;;;;;5000262;28;20279;-86
2023/07/31 02:51:33;;;;;;;7.15;6.55;;;;;;;;;;4993954;28;20202;-86
2023/07/31 02:53:59;;;;;;;6.20;5.60;;;;;;;;;;4988443;28;20257;-83
2023/07/31 02:56:24;;;;;;;6.03;5.63;;;;;;;;;;4992163;28;20237;-83
2023/07/31 02:58:50;;;;;;;6.97;6.13;;;;;;;;;;4983935;28;20288;-87
2023/07/31 03:01:18;;;;;;;6.35;5.95;;;;;;;;;;4994185;28;20216;-84
2023/07/31 03:03:46;;;;;;;7.63;6.82;;;;;;;;;;5006068;28;20244;-83
2023/07/31 03:06:14;;;;;;;7.15;6.55;;;;;;;;;;5010415;28;20229;-85
2023/07/31 03:08:46;;;;;;;6.88;6.32;;;;;;;;;;4990572;28;20221;-84
2023/07/31 03:11:14;;;;;;;8.35;6.97;;;;;;;;;;5011792;28;20273;-84
2023/07/31 03:13:44;;;;;;;7.85;7.15;;;;;;;;;;5003035;28;20234;-86
2023/07/31 03:16:10;;;;;;;7.93;7.30;;;;;;;;;;4992204;28;20233;-87
2023/07/31 03:18:35;;;;;;;8.13;7.53;;;;;;;;;;4989872;28;20241;-86
2023/07/31 03:21:04;;;;;;;8.65;7.88;;;;;;;;;;4989078;28;20788;-86
2023/07/31 03:23:32;;;;;;;8.40;7.70;;;;;;;;;;4984480;28;20226;-85
2023/07/31 03:26:07;;;;;;;9.00;8.30;;;;;;;;;;4996246;28;20237;-86
2023/07/31 03:28:35;;;;;;;9.00;8.25;;;;;;;;;;4948191;28;20218;-86
2023/07/31 03:31:08;;;;;;;8.40;7.80;;;;;;;;;;4949687;28;20284;-85
2023/07/31 03:33:33;;;;;;;8.38;7.78;;;;;;;;;;4943971;28;20235;-85
2023/07/31 03:36:04;;;;;;;8.25;7.55;;;;;;;;;;4963120;28;20233;-86
2023/07/31 03:38:31;;;;;;;9.52;8.82;;;;;;;;;;4982431;28;20235;-85
2023/07/31 03:40:58;;;;;;;8.98;8.27;;;;;;;;;;4983413;28;20226;-84
2023/07/31 03:43:26;;;;;;;9.48;8.50;;;;;;;;;;4991962;28;20218;-86
2023/07/31 03:45:54;;;;;;;8.93;8.23;;;;;;;;;;4984709;28;20230;-84
2023/07/31 03:48:20;;;;;;;9.68;8.75;;;;;;;;;;5002210;28;20222;-86
2023/07/31 03:50:45;;;;;;;8.77;8.13;;;;;;;;;;4989370;28;20222;-86
2023/07/31 03:53:11;;;;;;;9.65;8.82;;;;;;;;;;4999394;28;20222;-87
2023/07/31 03:55:37;;;;;;;8.88;8.20;;;;;;;;;;4965171;28;20272;-87
2023/07/31 03:58:03;;;;;;;8.77;8.05;;;;;;;;;;4990810;28;20618;-86
2023/07/31 04:04:27;;;;;;;9.23;8.07;;;;;;;;;;4984788;28;20248;-84
2023/07/31 04:06:54;;;;;;;7.50;6.90;;;;;;;;;;4985432;28;20214;-85
2023/07/31 04:09:20;;;;;;;7.43;6.93;;;;;;;;;;5015664;28;20223;-85
2023/07/31 04:11:45;;;;;;;7.40;6.80;;;;;;;;;;5000729;28;20248;-85
2023/07/31 04:14:11;;;;;;;8.30;7.70;;;;;;;;;;5014183;28;20284;-86
2023/07/31 04:16:41;;;;;;;8.15;7.45;;;;;;;;;;4986914;28;20241;-87
2023/07/31 04:19:07;;;;;;;7.22;6.63;;;;;;;;;;4986626;28;20230;-86
2023/07/31 04:21:33;;;;;;;7.68;7.07;;;;;;;;;;4982762;28;20227;-87
2023/07/31 04:23:58;;;;;;;8.30;7.60;;;;;;;;;;4983022;28;20750;-86
2023/07/31 04:26:24;;;;;;;8.43;7.68;;;;;;;;;;4987526;28;20304;-85
2023/07/31 04:28:49;;;;;;;8.40;7.75;;;;;;;;;;4991679;28;20233;-86
2023/07/31 04:31:17;;;;;;;9.10;8.30;;;;;;;;;;4987127;28;20225;-85
2023/07/31 04:33:42;;;;;;;8.97;8.23;;;;;;;;;;4992556;28;20252;-85
2023/07/31 04:36:08;;;;;;;10.60;8.07;;;;;;;;;;4986693;28;20244;-85
2023/07/31 04:38:33;;;;;;;8.77;8.15;;;;;;;;;;5001936;28;20226;-86
2023/07/31 04:41:01;;;;;;;9.70;9.00;;;;;;;;;;5005283;28;20225;-86
2023/07/31 04:43:27;;;;;;;9.85;9.10;;;;;;;;;;4984912;28;20234;-84
2023/07/31 04:45:57;;;;;;;10.55;9.68;;;;;;;;;;4999192;28;20372;-86
2023/07/31 04:48:28;;;;;;;10.45;9.45;;;;;;;;;;4999668;28;20249;-85
2023/07/31 04:50:56;;;;;;;10.07;9.27;;;;;;;;;;4996151;28;20843;-85
2023/07/31 04:53:22;;;;;;;9.88;9.18;;;;;;;;;;4986366;28;20225;-83
2023/07/31 04:55:50;;;;;;;9.50;8.55;;;;;;;;;;4990539;28;20237;-83
2023/07/31 04:58:15;;;;;;;8.65;7.75;;;;;;;;;;5016766;28;20242;-86
2023/07/31 05:00:41;;;;;;;8.63;7.38;;;;;;;;;;4990767;28;20220;-86
2023/07/31 05:03:07;;;;;;;7.93;7.32;;;;;;;;;;4998133;28;20264;-85
2023/07/31 05:05:32;;;;;;;7.57;6.82;;;;;;;;;;4987254;28;20298;-86
2023/07/31 05:07:58;;;;;;;7.72;6.45;;;;;;;;;;4967007;28;20248;-83
2023/07/31 05:10:26;;;;;;;7.57;6.97;;;;;;;;;;4971620;28;20215;-86
2023/07/31 05:12:56;;;;;;;7.45;6.90;;;;;;;;;;4986765;28;20320;-83
2023/07/31 05:15:22;;;;;;;7.93;7.32;;;;;;;;;;4980980;28;20317;-86
2023/07/31 05:17:47;;;;;;;7.55;6.68;;;;;;;;;;4953796;28;20492;-85
2023/07/31 05:20:14;;;;;;;6.78;6.38;;;;;;;;;;4990401;28;20241;-84
2023/07/31 05:22:42;;;;;;;6.80;6.30;;;;;;;;;;4973367;28;20222;-85
2023/07/31 05:25:08;;;;;;;7.03;6.45;;;;;;;;;;4985283;28;20242;-85
2023/07/31 05:27:33;;;;;;;7.00;6.50;;;;;;;;;;4985542;28;20723;-85
2023/07/31 05:29:59;;;;;;;5.93;5.47;;;;;;;;;;4994090;28;20244;-84
2023/07/31 05:32:25;;;;;;;5.80;5.40;;;;;;;;;;5001884;28;20206;-85
2023/07/31 05:34:53;;;;;;;5.00;4.70;;;;;;;;;;4967042;28;20226;-85
2023/07/31 05:37:19;;;;;;;5.45;5.05;;;;;;;;;;4968398;28;20223;-86
2023/07/31 05:39:48;;;;;;;5.03;4.63;;;;;;;;;;4987683;28;20710;-84
2023/07/31 05:42:16;;;;;;;5.38;4.97;;;;;;;;;;4972686;28;20229;-84
2023/07/31 05:44:44;;;;;;;5.40;5.00;;;;;;;;;;4986122;28;20225;-86
2023/07/31 05:47:09;;;;;;;5.05;4.60;;;;;;;;;;4985202;28;20218;-84
2023/07/31 05:49:39;;;;;;;4.95;4.55;;;;;;;;;;4996592;28;20236;-84
2023/07/31 05:52:10;;;;;;;5.30;4.80;;;;;;;;;;4999399;28;20218;-84
2023/07/31 05:54:38;;;;;;;5.15;4.80;;;;;;;;;;4969571;28;20213;-83
2023/07/31 05:57:05;;;;;;;4.97;4.65;;;;;;;;;;5014036;28;20222;-83
2023/07/31 05:59:32;;;;;;;5.45;5.05;;;;;;;;;;4995906;28;20237;-83
2023/07/31 06:01:58;;;;;;;5.18;4.78;;;;;;;;;;4994766;28;20210;-82
2023/07/31 06:04:26;;;;;;;4.38;4.07;;;;;;;;;;4992334;28;20232;-85
2023/07/31 06:06:52;;;;;;;4.60;4.30;;;;;;;;;;4989809;28;20322;-85
2023/07/31 06:09:20;;;;;;;5.47;4.40;;;;;;;;;;5006606;28;20236;-83
2023/07/31 06:11:46;;;;;;;6.75;3.40;;;;;;;;;;4972352;28;20209;-86
2023/07/31 06:14:14;;;;;;;3.45;3.20;;;;;;;;;;4968130;28;20248;-85
2023/07/31 06:16:40;;;;;;;3.08;2.88;;;;;;;;;;4968952;28;20252;-86
2023/07/31 06:19:08;;;;;;;3.42;3.22;;;;;;;;;;5003972;28;20218;-89
2023/07/31 06:21:41;;;;;;;2.60;2.40;;;;;;;;;;4953467;28;20272;-86
2023/07/31 06:24:07;;;;;;;2.50;2.40;;;;;;;;;;4999452;28;20313;-87
2023/07/31 06:26:33;;;;;;;2.70;2.50;;;;;;;;;;4970551;28;20225;-89
2023/07/31 06:28:58;;;;;;;2.78;2.58;;;;;;;;;;4982874;28;20797;-85
2023/07/31 06:31:26;;;;;;;2.60;2.50;;;;;;;;;;4970128;28;20230;-88
2023/07/31 06:33:57;;;;;;;2.70;2.50;;;;;;;;;;4981382;28;20234;-83
2023/07/31 06:36:22;;;;;;;2.38;2.25;;;;;;;;;;5006538;28;21402;-83
2023/07/31 06:38:50;;;;;;;3.42;2.20;;;;;;;;;;4990156;28;20238;-84
2023/07/31 06:41:16;;;;;;;5.10;2.33;;;;;;;;;;5005234;28;20217;-83
2023/07/31 06:43:41;;;;;;;2.40;2.30;;;;;;;;;;4969792;28;20234;-87
2023/07/31 06:46:07;;;;;;;1.70;1.65;;;;;;;;;;5005129;28;20286;-85
2023/07/31 06:48:38;;;;;;;2.10;2.00;;;;;;;;;;4987216;28;20277;-85
2023/07/31 06:51:06;;;;;;;1.80;1.70;;;;;;;;;;4997521;28;20262;-82
2023/07/31 06:53:31;;;;;;;1.98;1.88;;;;;;;;;;4987204;28;20226;-84
2023/07/31 06:55:57;;;;;;;2.10;1.90;;;;;;;;;;4984143;28;20218;-85
2023/07/31 06:58:26;;;;;;;2.10;2.00;;;;;;;;;;4985133;28;20237;-87
2023/07/31 07:00:51;;;;;;;1.83;1.73;;;;;;;;;;4965383;28;20817;-86
2023/07/31 07:03:18;;;;;;;1.95;1.83;;;;;;;;;;4996292;28;20238;-88
2023/07/31 07:05:43;;;;;;;2.55;1.80;;;;;;;;;;4955169;28;20226;-86
2023/07/31 07:08:09;;;;;;;1.73;1.63;;;;;;;;;;4973621;28;20242;-87
2023/07/31 07:10:37;;;;;;;1.67;1.58;;;;;;;;;;4954423;28;20336;-85
2023/07/31 07:13:05;;;;;;;2.05;1.70;;;;;;;;;;4987967;28;20265;-85
2023/07/31 07:15:30;;;;;;;1.38;1.30;;;;;;;;;;4970939;28;20226;-84
2023/07/31 07:17:58;;;;;;;1.63;1.52;;;;;;;;;;4983722;28;20233;-88
2023/07/31 07:20:24;;;;;;;1.58;1.58;;;;;;;;;;4981398;28;20626;-87
2023/07/31 07:22:49;;;;;;;1.42;1.30;;;;;;;;;;4969558;28;20225;-84
2023/07/31 07:25:15;;;;;;;1.67;1.30;;;;;;;;;;4998682;28;20244;-83
2023/07/31 07:27:41;;;;;;;1.10;1.00;;;;;;;;;;4988336;28;20277;-84
2023/07/31 07:30:07;;;;;;;0.73;0.73;;;;;;;;;;4970285;28;20214;-87
2023/07/31 07:32:37;;;;;;;2.53;1.08;;;;;;;;;;4973847;28;20209;-87
2023/07/31 07:35:03;;;;;;;0.80;0.80;;;;;;;;;;4995445;28;20238;-88
2023/07/31 07:37:31;;;;;;;1.02;0.82;;;;;;;;;;4987133;28;20309;-86
2023/07/31 07:39:59;;;;;;;0.73;0.73;;;;;;;;;;4982950;28;20221;-87
2023/07/31 07:42:25;;;;;;;1.10;1.00;;;;;;;;;;4984098;28;20217;-85
2023/07/31 07:44:50;;;;;;;1.27;0.77;;;;;;;;;;5000965;28;20237;-86
2023/07/31 07:47:16;;;;;;;2.90;0.60;;;;;;;;;;4998373;28;20269;-86
2023/07/31 07:49:41;;;;;;;0.50;0.50;;;;;;;;;;4966339;28;20221;-86
2023/07/31 07:52:14;;;;;;;0.50;0.50;;;;;;;;;;4989323;28;20301;-85
2023/07/31 07:54:40;;;;;;;1.17;0.65;;;;;;;;;;4984791;28;20222;-86
2023/07/31 07:57:05;;;;;;;0.70;0.70;;;;;;;;;;4984157;28;20234;-87
2023/07/31 07:59:31;;;;;;;0.52;0.52;;;;;;;;;;4992925;28;20229;-84
2023/07/31 08:01:59;;;;;;;0.80;0.80;;;;;;;;;;4969683;28;20230;-83
2023/07/31 08:04:24;;;;;;;0.70;0.70;;;;;;;;;;4978060;28;20301;-84
2023/07/31 08:06:50;;;;;;;0.93;0.90;;;;;;;;;;4983201;28;20214;-85
2023/07/31 08:09:15;;;;;;;1.30;1.30;;;;;;;;;;4977451;28;20256;-82
2023/07/31 08:11:41;;;;;;;1.60;1.50;;;;;;;;;;4975913;28;20217;-84
2023/07/31 08:14:06;;;;;;;1.80;1.70;;;;;;;;;;4975276;28;20226;-86
2023/07/31 08:16:32;;;;;;;2.20;2.00;;;;;;;;;;4988086;28;20600;-85
2023/07/31 08:18:58;;;;;;;3.00;2.80;;;;;;;;;;4998922;28;20233;-85
2023/07/31 08:21:23;;;;;;;3.95;3.63;;;;;;;;;;4971611;28;20230;-86
2023/07/31 08:23:51;;;;;;;6.90;4.07;;;;;;;;;;4965423;28;20237;-85
2023/07/31 08:26:17;;;;;;;6.05;5.45;;;;;;;;;;4981072;28;20226;-86
2023/07/31 08:28:43;;;;;;;5.70;5.07;;;;;;;;;;4984277;28;20326;-86
2023/07/31 08:31:09;;;;;;;7.53;5.55;;;;;;;;;;4990607;28;20245;-85
2023/07/31 08:33:34;;;;;;;8.23;6.38;;;;;;;;;;4986637;28;20237;-85
2023/07/31 08:36:05;;;;;;;7.85;7.00;;;;;;;;;;4986777;28;20306;-84
2023/07/31 08:38:32;;;;;;;8.32;7.15;;;;;;;;;;4962490;28;20229;-88
2023/07/31 08:41:02;;;;;;;8.70;7.20;;;;;;;;;;5007035;28;20241;-87
2023/07/31 08:43:28;;;;;;;9.32;8.43;;;;;;;;;;4993507;28;20309;-86
2023/07/31 08:45:54;;;;;;;12.02;9.45;;;;;;;;;;4982422;28;20877;-86
2023/07/31 08:48:22;;;;;;;14.70;10.60;;;;;;;;;;4980845;28;20254;-87
2023/07/31 08:50:50;;;;;;;12.30;10.27;;;;;;;;;;4944042;28;20222;-87
2023/07/31 08:53:19;;;;;;;15.82;11.07;;;;;;;;;;4980750;28;20225;-84
2023/07/31 08:55:44;;;;;;;15.18;11.90;;;;;;;;;;4995921;28;20631;-84
2023/07/31 08:58:10;;;;;;;16.55;11.55;;;;;;;;;;4997177;28;20257;-86
2023/07/31 09:00:38;;;;;;;16.10;12.25;;;;;;;;;;4977636;28;20219;-87
2023/07/31 09:03:07;;;;;;;17.35;12.50;;;;;;;;;;4963947;28;20237;-84
2023/07/31 09:05:33;;;;;;;19.73;13.10;;;;;;;;;;4979267;28;20770;-85
2023/07/31 09:07:58;;;;;;;16.65;13.75;;;;;;;;;;4996089;28;20218;-85
2023/07/31 09:10:26;;;;;;;15.77;12.50;;;;;;;;;;4976174;28;20227;-85
2023/07/31 09:12:52;;;;;;;19.92;13.55;;;;;;;;;;4963885;28;20773;-84
2023/07/31 09:15:20;;;;;;;15.40;13.02;;;;;;;;;;4995084;28;20226;-88
2023/07/31 09:17:46;;;;;;;17.05;12.35;;;;;;;;;;4965580;28;20241;-86
2023/07/31 09:20:19;;;;;;;16.25;12.77;;;;;;;;;;4963780;28;20218;-87
2023/07/31 09:22:47;;;;;;;17.55;13.00;;;;;;;;;;4949211;28;20651;-85
2023/07/31 09:25:19;;;;;;;16.13;11.38;;;;;;;;;;4996639;28;20221;-84
2023/07/31 09:28:00;;;;;;;17.77;11.07;;;;;;;;;;4958296;28;20329;-86
2023/07/31 09:30:25;;;;;;;15.68;11.15;;;;;;;;;;4977009;28;20221;-87
2023/07/31 09:32:52;;;;;;;15.23;10.43;;;;;;;;;;4981416;28;20248;-88
2023/07/31 09:35:34;;;;;;;17.80;9.38;;;;;;;;;;4975478;28;20266;-87
2023/07/31 09:38:07;;;;;;;11.32;9.00;;;;;;;;;;4978747;28;20237;-85
2023/07/31 09:40:35;;;;;;;12.43;9.30;;;;;;;;;;4973884;28;20237;-85
2023/07/31 09:43:02;;;;;;;16.98;9.32;;;;;;;;;;4992683;28;20240;-86
2023/07/31 09:45:33;;;;;;;12.02;8.13;;;;;;;;;;4978237;28;20943;-87
2023/07/31 09:47:59;;;;;;;10.05;8.77;;;;;;;;;;4999606;28;20240;-87
2023/07/31 09:50:27;;;;;;;10.52;8.38;;;;;;;;;;4981767;28;20279;-84
2023/07/31 09:52:53;;;;;;;12.52;8.57;;;;;;;;;;4962588;28;20605;-83
2023/07/31 09:55:19;;;;;;;13.98;7.88;;;;;;;;;;5001534;28;20226;-87
2023/07/31 09:57:48;;;;;;;13.18;7.22;;;;;;;;;;4977770;28;20471;-87
2023/07/31 10:00:16;;;;;;;12.15;7.28;;;;;;;;;;4982974;28;20230;-85
2023/07/31 10:02:44;;;;;;;14.23;7.22;;;;;;;;;;4992643;28;20216;-86
2023/07/31 10:05:18;;;;;;;9.43;6.57;;;;;;;;;;4983765;28;20218;-87
2023/07/31 10:08:04;;;;;;;8.45;5.85;;;;;;;;;;4993538;28;20731;-86
2023/07/31 10:10:30;;;;;;;7.90;5.75;;;;;;;;;;4973242;28;20564;-86
2023/07/31 10:12:58;;;;;;;7.70;5.63;;;;;;;;;;4984235;28;20229;-86
2023/07/31 10:15:26;;;;;;;8.98;5.53;;;;;;;;;;4995866;28;20606;-86
2023/07/31 10:17:55;;;;;;;7.95;5.90;;;;;;;;;;4977329;28;20308;-88
2023/07/31 10:20:24;;;;;;;8.10;5.88;;;;;;;;;;4966944;28;20690;-85
2023/07/31 10:22:57;;;;;;;8.88;5.35;;;;;;;;;;4964653;28;20276;-86
2023/07/31 10:25:23;;;;;;;11.07;5.25;;;;;;;;;;4976988;28;20230;-86
2023/07/31 10:27:48;;;;;;;6.22;5.05;;;;;;;;;;4944743;28;20218;-79
2023/07/31 10:30:18;;;;;;;7.88;4.95;;;;;;;;;;4972941;28;20286;-78
2023/07/31 10:32:46;;;;;;;7.57;5.18;;;;;;;;;;4991376;28;20308;-79
2023/07/31 10:35:15;;;;;;;7.05;5.20;;;;;;;;;;4990573;28;20245;-79
2023/07/31 10:37:44;;;;;;;7.63;5.40;;;;;;;;;;5004747;28;20234;-78
2023/07/31 10:40:11;;;;;;;7.40;4.78;;;;;;;;;;4994092;28;20257;-78
2023/07/31 10:42:52;;;;;;;8.80;5.47;;;;;;;;;;5006940;28;20222;-78
2023/07/31 10:45:44;;;;;;;5.45;4.35;;;;;;;;;;4991266;28;20228;-79
2023/07/31 10:48:13;;;;;;;6.07;3.95;;;;;;;;;;4975183;28;20225;-79
2023/07/31 10:51:01;;;;;;;4.50;3.53;;;;;;;;;;4976101;28;20555;-79
2023/07/31 10:53:29;;;;;;;5.32;4.20;;;;;;;;;;4991127;28;20244;-79
2023/07/31 10:56:03;;;;;;;4.05;3.65;;;;;;;;;;4974293;28;20881;-77
2023/07/31 10:58:28;;;;;;;4.00;3.70;;;;;;;;;;4974789;28;20797;-78
2023/07/31 11:00:57;;;;;;;5.45;4.53;;;;;;;;;;5008670;28;20280;-78
2023/07/31 11:03:25;;;;;;;5.30;3.78;;;;;;;;;;4977822;28;20233;-77
2023/07/31 11:06:02;;;;;;;5.32;4.32;;;;;;;;;;4976248;28;20626;-78
2023/07/31 11:08:35;;;;;;;4.82;4.00;;;;;;;;;;4977868;28;20249;-79
2023/07/31 11:11:03;;;;;;;4.93;4.18;;;;;;;;;;4980581;28;20331;-79
2023/07/31 11:13:57;;;;;;;5.90;4.05;;;;;;;;;;4993054;28;20320;-78
2023/07/31 11:16:23;;;;;;;4.40;4.03;;;;;;;;;;5003681;28;20786;-80
2023/07/31 11:18:51;;;;;;;4.20;3.80;;;;;;;;;;4979395;28;20260;-79
2023/07/31 11:21:23;;;;;;;4.13;3.78;;;;;;;;;;4983398;28;20305;-77
2023/07/31 11:23:49;;;;;;;4.22;3.80;;;;;;;;;;4983315;28;20460;-78
2023/07/31 11:26:15;;;;;;;3.55;3.33;;;;;;;;;;5000803;28;20221;-78
2023/07/31 11:28:43;;;;;;;3.80;3.28;;;;;;;;;;4999562;28;20680;-77
2023/07/31 11:31:11;;;;;;;4.05;3.58;;;;;;;;;;4993343;28;20222;-78
2023/07/31 11:33:39;;;;;;;3.88;3.10;;;;;;;;;;4995495;28;20233;-77
2023/07/31 11:36:09;;;;;;;4.38;3.95;;;;;;;;;;4989887;28;20210;-81
2023/07/31 11:38:34;;;;;;;3.60;3.30;;;;;;;;;;4990541;28;20257;-82
2023/07/31 11:41:04;;;;;;;3.65;3.35;;;;;;;;;;5004155;28;20679;-81
2023/07/31 11:43:30;;;;;;;4.15;3.55;;;;;;;;;;4985097;28;20237;-81
2023/07/31 11:46:02;;;;;;;4.10;3.80;;;;;;;;;;4986981;28;20256;-85
2023/07/31 11:48:30;;;;;;;4.55;4.15;;;;;;;;;;5002643;28;20241;-84
2023/07/31 11:51:01;;;;;;;4.20;3.47;;;;;;;;;;4997957;28;20230;-87
2023/07/31 11:53:37;;;;;;;3.60;3.25;;;;;;;;;;4971742;28;20229;-84
2023/07/31 11:56:05;;;;;;;3.05;2.85;;;;;;;;;;4993398;28;20230;-83
2023/07/31 11:58:34;;;;;;;3.53;3.20;;;;;;;;;;4996670;28;20805;-84
2023/07/31 12:00:59;;;;;;;3.42;3.20;;;;;;;;;;4981035;28;20218;-83
2023/07/31 12:03:25;;;;;;;3.58;3.20;;;;;;;;;;4980635;28;20236;-84
2023/07/31 12:05:55;;;;;;;3.72;3.10;;;;;;;;;;4997950;28;20269;-86
2023/07/31 12:08:21;;;;;;;3.47;2.88;;;;;;;;;;4981909;28;20225;-86
2023/07/31 12:10:49;;;;;;;3.10;2.88;;;;;;;;;;4988573;28;20231;-85
2023/07/31 12:13:24;;;;;;;3.47;3.17;;;;;;;;;;4982580;28;20229;-86
2023/07/31 12:15:53;;;;;;;2.90;2.70;;;;;;;;;;4993557;28;20244;-83
2023/07/31 12:18:21;;;;;;;2.75;2.55;;;;;;;;;;5007996;28;20233;-86
2023/07/31 12:20:56;;;;;;;2.53;2.33;;;;;;;;;;5013382;28;20754;-82
2023/07/31 12:23:29;;;;;;;3.80;2.40;;;;;;;;;;4994412;28;20336;-83
2023/07/31 12:26:01;;;;;;;3.60;2.50;;;;;;;;;;5002860;28;20455;-85
2023/07/31 12:28:29;;;;;;;2.63;2.47;;;;;;;;;;5000575;28;20474;-86
2023/07/31 12:31:01;;;;;;;2.63;2.45;;;;;;;;;;4982008;28;20284;-86
2023/07/31 12:33:37;;;;;;;2.63;2.47;;;;;;;;;;4995905;28;20232;-83
2023/07/31 12:36:23;;;;;;;2.47;2.28;;;;;;;;;;4966654;28;20229;-85
2023/07/31 12:38:50;;;;;;;2.95;2.75;;;;;;;;;;4985236;28;20265;-85
2023/07/31 12:41:15;;;;;;;2.72;2.53;;;;;;;;;;4973036;28;20205;-84
2023/07/31 12:43:42;;;;;;;2.10;1.98;;;;;;;;;;4985275;28;20236;-84
2023/07/31 12:46:07;;;;;;;2.00;1.90;;;;;;;;;;4984171;28;20218;-88
2023/07/31 12:48:33;;;;;;;1.50;1.40;;;;;;;;;;4982064;28;21040;-84
2023/07/31 12:50:59;;;;;;;1.80;1.70;;;;;;;;;;4995205;28;20218;-85
2023/07/31 12:53:24;;;;;;;2.17;1.70;;;;;;;;;;4968399;28;20230;-84
2023/07/31 12:55:50;;;;;;;1.98;1.80;;;;;;;;;;4984874;28;20228;-86
2023/07/31 12:58:17;;;;;;;1.90;1.80;;;;;;;;;;4985333;28;20232;-86
2023/07/31 13:00:45;;;;;;;1.70;1.60;;;;;;;;;;4999342;28;20225;-86
2023/07/31 13:03:14;;;;;;;1.73;1.60;;;;;;;;;;4972278;28;20305;-85
2023/07/31 13:05:39;;;;;;;1.85;1.75;;;;;;;;;;4972102;28;20228;-82
2023/07/31 13:08:05;;;;;;;2.13;2.03;;;;;;;;;;4985023;28;20218;-81
2023/07/31 13:10:30;;;;;;;2.08;1.98;;;;;;;;;;4995759;28;20229;-84
2023/07/31 13:12:56;;;;;;;2.75;2.05;;;;;;;;;;4962225;28;20221;-85
2023/07/31 13:15:22;;;;;;;2.30;2.00;;;;;;;;;;4978888;28;20224;-83
2023/07/31 13:17:49;;;;;;;2.05;1.95;;;;;;;;;;5001244;28;20226;-86
2023/07/31 13:20:15;;;;;;;2.22;2.13;;;;;;;;;;4979099;28;20217;-84
2023/07/31 13:22:40;;;;;;;3.75;2.22;;;;;;;;;;4979250;28;20222;-84
2023/07/31 13:25:09;;;;;;;3.00;2.80;;;;;;;;;;4973400;28;20217;-79
2023/07/31 13:27:35;;;;;;;3.13;2.92;;;;;;;;;;5005727;28;20250;-82
2023/07/31 13:30:00;;;;;;;3.88;3.63;;;;;;;;;;4979261;28;20236;-81
2023/07/31 13:32:31;;;;;;;4.10;3.75;;;;;;;;;;4979938;28;20264;-84
2023/07/31 13:34:59;;;;;;;5.43;5.03;;;;;;;;;;4993474;28;20284;-83
2023/07/31 13:37:27;;;;;;;5.63;5.18;;;;;;;;;;4949772;28;20230;-82
2023/07/31 13:39:52;;;;;;;5.93;5.53;;;;;;;;;;4979234;28;20225;-84
2023/07/31 13:42:18;;;;;;;6.68;6.07;;;;;;;;;;4968791;28;20625;-86
2023/07/31 13:44:43;;;;;;;5.60;5.18;;;;;;;;;;4977387;28;20598;-84
2023/07/31 13:47:11;;;;;;;6.20;5.70;;;;;;;;;;4997053;28;20252;-86
2023/07/31 13:49:39;;;;;;;5.78;5.38;;;;;;;;;;4980468;28;20218;-87
2023/07/31 13:52:05;;;;;;;5.65;5.30;;;;;;;;;;4963393;28;20224;-84
2023/07/31 13:54:35;;;;;;;6.35;5.95;;;;;;;;;;4978643;28;20230;-83
2023/07/31 13:57:03;;;;;;;5.97;5.47;;;;;;;;;;4994817;28;20415;-84
2023/07/31 13:59:30;;;;;;;5.78;5.38;;;;;;;;;;4972163;28;20281;-82
2023/07/31 14:01:58;;;;;;;5.50;5.10;;;;;;;;;;4970393;28;20265;-83
2023/07/31 14:04:24;;;;;;;5.70;5.38;;;;;;;;;;4990037;28;20229;-84
2023/07/31 14:06:50;;;;;;;5.57;5.07;;;;;;;;;;5004307;28;20229;-82
2023/07/31 14:09:21;;;;;;;6.38;5.72;;;;;;;;;;4950563;28;20277;-83
2023/07/31 14:11:49;;;;;;;5.97;5.53;;;;;;;;;;4985163;28;20269;-84
2023/07/31 14:14:14;;;;;;;6.47;5.95;;;;;;;;;;4977892;28;20218;-84
2023/07/31 14:16:42;;;;;;;6.15;5.75;;;;;;;;;;4966853;28;21045;-83
2023/07/31 14:19:12;;;;;;;6.93;6.38;;;;;;;;;;4953123;28;20287;-84
2023/07/31 14:21:42;;;;;;;7.35;6.75;;;;;;;;;;4982699;28;20228;-83
2023/07/31 14:24:08;;;;;;;6.95;6.32;;;;;;;;;;5002076;28;20221;-84
2023/07/31 14:26:33;;;;;;;6.38;5.82;;;;;;;;;;4988175;28;20358;-84
2023/07/31 14:28:59;;;;;;;6.75;6.28;;;;;;;;;;4980499;28;20551;-85
2023/07/31 14:31:29;;;;;;;6.75;6.25;;;;;;;;;;4990046;28;20227;-84
2023/07/31 14:33:57;;;;;;;6.20;5.70;;;;;;;;;;4985883;28;20305;-81
2023/07/31 14:36:27;;;;;;;6.60;5.93;;;;;;;;;;5004231;28;20206;-83
2023/07/31 14:38:55;;;;;;;5.22;4.93;;;;;;;;;;5005446;28;20233;-82
2023/07/31 14:41:25;;;;;;;5.60;5.20;;;;;;;;;;4988831;28;20210;-84
2023/07/31 14:43:53;;;;;;;5.75;5.25;;;;;;;;;;5006271;28;20236;-85
2023/07/31 14:46:21;;;;;;;5.43;5.03;;;;;;;;;;4969301;28;20206;-84
2023/07/31 14:48:47;;;;;;;5.20;4.90;;;;;;;;;;4984350;28;20285;-84